createdAt,value
2018-12-10T00:00:08.892Z,2.91
2018-12-10T00:01:08.862Z,3.02
2018-12-10T00:02:08.594Z,3.02
2018-12-10T00:03:08.580Z,2.99
2018-12-10T00:04:08.568Z,3.02
2018-12-10T00:05:08.548Z,2.98
2018-12-10T00:06:08.777Z,2.99
2018-12-10T00:07:08.524Z,2.93
2018-12-10T00:08:08.743Z,2.96
2018-12-10T00:09:08.725Z,2.9
2018-12-10T00:10:08.711Z,3.06
2018-12-10T00:11:08.450Z,2.95
2018-12-10T00:12:08.672Z,2.96
2018-12-10T00:13:08.667Z,2.98
2018-12-10T00:14:08.393Z,3.06
2018-12-10T00:15:08.627Z,2.95
2018-12-10T00:16:08.605Z,3.01
2018-12-10T00:17:08.593Z,2.98
2018-12-10T00:18:08.576Z,2.93
2018-12-10T00:19:08.564Z,2.91
2018-12-10T00:20:08.540Z,2.91
2018-12-10T00:21:08.568Z,2.96
2018-12-10T00:22:08.256Z,2.85
2018-12-10T00:23:08.489Z,2.84
2018-12-10T00:24:08.484Z,2.84
2018-12-10T00:25:08.454Z,2.84
2018-12-10T00:26:08.435Z,2.84
2018-12-10T00:27:08.420Z,2.81
2018-12-10T00:28:08.400Z,2.77
2018-12-10T00:29:08.393Z,2.8
2018-12-10T00:30:08.371Z,2.81
2018-12-10T00:31:08.356Z,2.84
2018-12-10T00:32:08.333Z,2.84
2018-12-10T00:33:08.317Z,2.78
2018-12-10T00:34:08.320Z,2.77
2018-12-10T00:35:08.280Z,2.84
2018-12-10T00:36:08.015Z,2.77
2018-12-10T00:37:08.252Z,2.83
2018-12-10T00:38:08.231Z,2.85
2018-12-10T00:39:07.965Z,2.85
2018-12-10T00:40:07.949Z,2.8
2018-12-10T00:41:08.177Z,2.8
2018-12-10T00:42:08.168Z,2.8
2018-12-10T00:43:07.901Z,2.78
2018-12-10T00:44:08.122Z,2.8
2018-12-10T00:45:08.110Z,2.8
2018-12-10T00:46:08.094Z,2.77
2018-12-10T00:47:08.069Z,2.78
2018-12-10T00:48:08.052Z,2.78
2018-12-10T00:49:08.036Z,2.78
2018-12-10T00:50:08.021Z,2.66
2018-12-10T00:51:07.999Z,2.65
2018-12-10T00:52:07.983Z,2.58
2018-12-10T00:53:07.731Z,2.63
2018-12-10T00:54:07.955Z,2.55
2018-12-10T00:55:07.938Z,2.51
2018-12-10T00:56:07.913Z,2.44
2018-12-10T00:57:07.897Z,2.44
2018-12-10T00:58:07.884Z,2.31
2018-12-10T00:59:07.612Z,2.34
2018-12-10T01:00:07.852Z,2.31
2018-12-10T01:01:07.826Z,2.3
2018-12-10T01:02:07.817Z,2.15
2018-12-10T01:03:07.792Z,2.23
2018-12-10T01:04:07.782Z,2.26
2018-12-10T01:05:07.518Z,2.2
2018-12-10T01:06:07.741Z,2.15
2018-12-10T01:07:07.730Z,2.13
2018-12-10T01:08:07.718Z,2.13
2018-12-10T01:09:07.443Z,2.05
2018-12-10T01:10:07.674Z,2.09
2018-12-10T01:11:07.413Z,2.12
2018-12-10T01:12:07.526Z,2.16
2018-12-10T01:13:07.621Z,2.22
2018-12-10T01:14:07.601Z,2.22
2018-12-10T01:15:07.632Z,2.18
2018-12-10T01:16:07.318Z,2.16
2018-12-10T01:17:07.546Z,2.16
2018-12-10T01:18:07.537Z,2.13
2018-12-10T01:19:07.520Z,2.24
2018-12-10T01:20:07.494Z,2.27
2018-12-10T01:21:07.478Z,2.26
2018-12-10T01:22:07.460Z,2.27
2018-12-10T01:23:07.445Z,2.2
2018-12-10T01:24:07.182Z,2.18
2018-12-10T01:25:07.410Z,2.18
2018-12-10T01:26:07.402Z,2.2
2018-12-10T01:27:07.378Z,2.16
2018-12-10T01:28:07.354Z,2.16
2018-12-10T01:29:07.349Z,2.2
2018-12-10T01:30:07.317Z,2.2
2018-12-10T01:31:07.324Z,2.23
2018-12-10T01:32:07.282Z,2.16
2018-12-10T01:33:07.266Z,2.06
2018-12-10T01:34:07.247Z,2.18
2018-12-10T01:35:06.982Z,2.15
2018-12-10T01:36:07.213Z,2.16
2018-12-10T01:37:07.195Z,2.2
2018-12-10T01:38:06.927Z,2.13
2018-12-10T01:39:07.160Z,2.18
2018-12-10T01:40:07.139Z,2.22
2018-12-10T01:41:07.123Z,2.16
2018-12-10T01:42:06.867Z,2.2
2018-12-10T01:43:07.088Z,2.16
2018-12-10T01:44:07.073Z,2.12
2018-12-10T01:45:07.057Z,2.22
2018-12-10T01:46:07.036Z,2.2
2018-12-10T01:47:06.773Z,2.16
2018-12-10T01:48:07.003Z,2.26
2018-12-10T01:49:07.093Z,2.24
2018-12-10T01:50:06.962Z,2.31
2018-12-10T01:51:06.947Z,2.31
2018-12-10T01:52:06.687Z,2.31
2018-12-10T01:53:06.913Z,2.22
2018-12-10T01:54:06.896Z,2.26
2018-12-10T01:55:06.881Z,2.24
2018-12-10T01:56:07.011Z,2.16
2018-12-10T01:57:06.846Z,2.16
2018-12-10T01:58:06.827Z,2.16
2018-12-10T01:59:06.807Z,2.08
2018-12-10T02:00:06.855Z,2.09
2018-12-10T02:01:06.775Z,2.06
2018-12-10T02:02:06.754Z,2.06
2018-12-10T02:03:06.740Z,1.98
2018-12-10T02:04:06.723Z,1.98
2018-12-10T02:05:06.703Z,2.06
2018-12-10T02:06:06.684Z,1.97
2018-12-10T02:07:06.669Z,1.98
2018-12-10T02:08:06.651Z,1.93
2018-12-10T02:09:06.633Z,1.97
2018-12-10T02:10:06.368Z,1.93
2018-12-10T02:11:06.600Z,2.08
2018-12-10T02:12:06.346Z,2.08
2018-12-10T02:13:06.561Z,2.12
2018-12-10T02:14:06.553Z,2.08
2018-12-10T02:15:06.529Z,2.11
2018-12-10T02:16:06.013Z,2.12
2018-12-10T02:17:06.504Z,2.15
2018-12-10T02:18:06.474Z,2.09
2018-12-10T02:19:06.467Z,2.16
2018-12-10T02:20:06.443Z,2.22
2018-12-10T02:21:06.423Z,2.06
2018-12-10T02:22:06.516Z,2.13
2018-12-10T02:23:06.386Z,2.06
2018-12-10T02:24:06.369Z,2.12
2018-12-10T02:25:06.370Z,2.16
2018-12-10T02:26:06.432Z,2.15
2018-12-10T02:27:06.312Z,2.18
2018-12-10T02:28:06.296Z,2.11
2018-12-10T02:29:06.277Z,2.12
2018-12-10T02:30:06.405Z,2.09
2018-12-10T02:31:06.254Z,2.15
2018-12-10T02:32:06.240Z,2.09
2018-12-10T02:33:06.249Z,2.22
2018-12-10T02:34:06.190Z,2.12
2018-12-10T02:35:06.198Z,2.15
2018-12-10T02:36:06.232Z,2.11
2018-12-10T02:37:06.139Z,2.12
2018-12-10T02:38:06.121Z,2.12
2018-12-10T02:39:05.614Z,2.05
2018-12-10T02:40:06.090Z,2.12
2018-12-10T02:41:06.070Z,2.06
2018-12-10T02:42:06.054Z,2.11
2018-12-10T02:43:05.782Z,2.12
2018-12-10T02:44:06.013Z,2.06
2018-12-10T02:45:06.008Z,1.98
2018-12-10T02:46:05.742Z,2.04
2018-12-10T02:47:05.966Z,2.08
2018-12-10T02:48:05.944Z,2.04
2018-12-10T02:49:05.687Z,1.97
2018-12-10T02:50:06.045Z,2.02
2018-12-10T02:51:05.898Z,1.98
2018-12-10T02:52:06.452Z,2.08
2018-12-10T02:53:05.860Z,1.92
2018-12-10T02:54:05.837Z,1.97
2018-12-10T02:55:05.829Z,1.94
2018-12-10T02:56:05.806Z,1.97
2018-12-10T02:57:05.802Z,1.94
2018-12-10T02:58:05.775Z,2.01
2018-12-10T02:59:05.755Z,1.97
2018-12-10T03:00:05.755Z,1.98
2018-12-10T03:01:05.715Z,1.98
2018-12-10T03:02:05.707Z,1.97
2018-12-10T03:03:05.446Z,1.97
2018-12-10T03:04:05.791Z,2.04
2018-12-10T03:05:05.647Z,2.01
2018-12-10T03:06:05.630Z,2.01
2018-12-10T03:07:05.607Z,2.04
2018-12-10T03:08:05.597Z,1.98
2018-12-10T03:09:05.574Z,1.98
2018-12-10T03:10:05.419Z,2.04
2018-12-10T03:11:05.546Z,2.11
2018-12-10T03:12:05.526Z,2.04
2018-12-10T03:13:05.512Z,2.06
2018-12-10T03:14:05.491Z,2.08
2018-12-10T03:15:05.468Z,2.08
2018-12-10T03:16:05.464Z,2.08
2018-12-10T03:17:05.431Z,2.11
2018-12-10T03:18:05.420Z,2.12
2018-12-10T03:19:05.407Z,2.06
2018-12-10T03:20:05.377Z,2.09
2018-12-10T03:21:05.117Z,2.05
2018-12-10T03:22:05.100Z,2.06
2018-12-10T03:23:05.326Z,2.15
2018-12-10T03:24:05.312Z,2.08
2018-12-10T03:25:05.290Z,2.12
2018-12-10T03:26:05.294Z,2.06
2018-12-10T03:27:05.006Z,2.18
2018-12-10T03:28:04.740Z,2.05
2018-12-10T03:29:05.218Z,2.11
2018-12-10T03:30:05.224Z,2.12
2018-12-10T03:31:05.203Z,2.2
2018-12-10T03:32:05.429Z,2.09
2018-12-10T03:33:05.399Z,2.11
2018-12-10T03:34:05.130Z,2.11
2018-12-10T03:35:05.128Z,2.12
2018-12-10T03:36:04.854Z,2.18
2018-12-10T03:37:05.075Z,2.18
2018-12-10T03:38:05.061Z,2.05
2018-12-10T03:39:04.790Z,2.12
2018-12-10T03:40:05.025Z,2.16
2018-12-10T03:41:05.004Z,2.11
2018-12-10T03:42:04.981Z,2.09
2018-12-10T03:43:04.985Z,2.12
2018-12-10T03:44:04.984Z,2.15
2018-12-10T03:45:04.928Z,2.12
2018-12-10T03:46:04.913Z,2.08
2018-12-10T03:47:04.892Z,2.16
2018-12-10T03:48:04.629Z,2.15
2018-12-10T03:49:04.862Z,2.18
2018-12-10T03:50:04.848Z,2.15
2018-12-10T03:51:04.831Z,2.2
2018-12-10T03:52:04.561Z,2.16
2018-12-10T03:53:04.543Z,2.15
2018-12-10T03:54:04.771Z,2.15
2018-12-10T03:55:04.750Z,2.11
2018-12-10T03:56:04.752Z,2.15
2018-12-10T03:57:04.718Z,2.23
2018-12-10T03:58:04.724Z,2.16
2018-12-10T03:59:04.684Z,2.2
2018-12-10T04:00:04.728Z,2.23
2018-12-10T04:01:04.647Z,2.22
2018-12-10T04:02:04.629Z,2.27
2018-12-10T04:03:04.611Z,2.2
2018-12-10T04:04:04.358Z,2.15
2018-12-10T04:05:04.617Z,2.23
2018-12-10T04:06:04.564Z,2.24
2018-12-10T04:07:04.291Z,2.22
2018-12-10T04:08:04.530Z,2.22
2018-12-10T04:09:04.512Z,2.13
2018-12-10T04:10:04.488Z,2.22
2018-12-10T04:11:04.496Z,2.2
2018-12-10T04:12:04.207Z,2.22
2018-12-10T04:13:04.435Z,2.16
2018-12-10T04:14:04.426Z,2.15
2018-12-10T04:15:04.403Z,2.22
2018-12-10T04:16:04.379Z,2.15
2018-12-10T04:17:04.363Z,2.22
2018-12-10T04:18:04.349Z,2.18
2018-12-10T04:19:04.330Z,2.24
2018-12-10T04:20:04.075Z,2.23
2018-12-10T04:21:04.300Z,2.15
2018-12-10T04:22:04.281Z,2.2
2018-12-10T04:23:04.262Z,2.13
2018-12-10T04:24:03.995Z,2.18
2018-12-10T04:25:03.978Z,2.22
2018-12-10T04:26:03.961Z,2.16
2018-12-10T04:27:04.194Z,2.15
2018-12-10T04:28:04.177Z,2.27
2018-12-10T04:29:04.157Z,2.15
2018-12-10T04:30:04.283Z,2.18
2018-12-10T04:31:04.124Z,2.16
2018-12-10T04:32:04.103Z,2.18
2018-12-10T04:33:04.093Z,2.22
2018-12-10T04:34:03.818Z,2.29
2018-12-10T04:35:04.054Z,2.2
2018-12-10T04:36:04.035Z,2.16
2018-12-10T04:37:04.022Z,2.2
2018-12-10T04:38:04.001Z,2.23
2018-12-10T04:39:03.985Z,2.2
2018-12-10T04:40:03.966Z,2.15
2018-12-10T04:41:03.941Z,2.23
2018-12-10T04:42:03.677Z,2.18
2018-12-10T04:43:03.906Z,2.13
2018-12-10T04:44:03.897Z,2.2
2018-12-10T04:45:03.876Z,2.12
2018-12-10T04:46:03.854Z,2.22
2018-12-10T04:47:03.834Z,2.23
2018-12-10T04:48:03.818Z,2.2
2018-12-10T04:49:03.800Z,2.22
2018-12-10T04:50:03.781Z,2.16
2018-12-10T04:51:03.774Z,2.16
2018-12-10T04:52:03.750Z,2.22
2018-12-10T04:53:03.727Z,2.22
2018-12-10T04:54:03.467Z,2.2
2018-12-10T04:55:03.451Z,2.18
2018-12-10T04:56:03.685Z,2.22
2018-12-10T04:57:03.678Z,2.2
2018-12-10T04:58:03.649Z,2.16
2018-12-10T04:59:03.625Z,2.23
2018-12-10T05:00:03.357Z,2.24
2018-12-10T05:01:03.588Z,2.16
2018-12-10T05:02:03.322Z,2.2
2018-12-10T05:03:03.555Z,2.2
2018-12-10T05:04:03.536Z,2.18
2018-12-10T05:05:03.518Z,2.27
2018-12-10T05:06:03.499Z,2.27
2018-12-10T05:07:03.234Z,2.31
2018-12-10T05:08:05.407Z,2.3
2018-12-10T05:09:03.447Z,2.3
2018-12-10T05:10:03.433Z,2.27
2018-12-10T05:11:03.415Z,2.33
2018-12-10T05:12:03.395Z,2.31
2018-12-10T05:13:03.388Z,2.31
2018-12-10T05:14:03.363Z,2.29
2018-12-10T05:15:03.343Z,2.31
2018-12-10T05:16:03.324Z,2.29
2018-12-10T05:17:03.306Z,2.31
2018-12-10T05:18:03.043Z,2.34
2018-12-10T05:19:03.277Z,2.34
2018-12-10T05:20:03.260Z,2.31
2018-12-10T05:21:03.240Z,2.3
2018-12-10T05:22:03.218Z,2.29
2018-12-10T05:23:03.210Z,2.16
2018-12-10T05:24:02.939Z,2.15
2018-12-10T05:25:02.918Z,2.22
2018-12-10T05:26:02.908Z,2.18
2018-12-10T05:27:03.742Z,2.11
2018-12-10T05:28:03.114Z,2.15
2018-12-10T05:29:03.096Z,2.18
2018-12-10T05:30:03.078Z,2.2
2018-12-10T05:31:03.084Z,2.12
2018-12-10T05:32:02.795Z,2.08
2018-12-10T05:33:03.024Z,2.12
2018-12-10T05:34:03.006Z,2.22
2018-12-10T05:35:02.989Z,2.15
2018-12-10T05:36:02.971Z,2.15
2018-12-10T05:37:02.957Z,2.12
2018-12-10T05:38:02.935Z,2.16
2018-12-10T05:39:02.917Z,2.16
2018-12-10T05:40:02.903Z,2.16
2018-12-10T05:41:02.884Z,2.12
2018-12-10T05:42:02.870Z,2.13
2018-12-10T05:43:02.998Z,2.13
2018-12-10T05:44:02.583Z,2.12
2018-12-10T05:45:02.817Z,2.12
2018-12-10T05:46:02.551Z,2.12
2018-12-10T05:47:02.779Z,2.16
2018-12-10T05:48:02.759Z,2.11
2018-12-10T05:49:02.494Z,2.15
2018-12-10T05:50:02.730Z,2.12
2018-12-10T05:51:02.708Z,2.18
2018-12-10T05:52:02.689Z,2.16
2018-12-10T05:53:02.421Z,2.13
2018-12-10T05:54:02.662Z,2.12
2018-12-10T05:55:02.635Z,2.23
2018-12-10T05:56:02.620Z,2.08
2018-12-10T05:57:02.601Z,2.22
2018-12-10T05:58:02.587Z,2.23
2018-12-10T05:59:02.568Z,2.15
2018-12-10T06:00:02.547Z,2.22
2018-12-10T06:01:02.532Z,2.2
2018-12-10T06:02:02.513Z,2.18
2018-12-10T06:03:02.521Z,2.22
2018-12-10T06:04:02.477Z,2.2
2018-12-10T06:05:02.458Z,2.16
2018-12-10T06:06:02.476Z,2.15
2018-12-10T06:07:02.176Z,2.12
2018-12-10T06:08:02.405Z,2.16
2018-12-10T06:09:02.391Z,2.16
2018-12-10T06:10:02.123Z,2.09
2018-12-10T06:11:02.357Z,2.2
2018-12-10T06:12:02.333Z,2.2
2018-12-10T06:13:02.066Z,2.2
2018-12-10T06:14:02.307Z,2.22
2018-12-10T06:15:02.287Z,2.2
2018-12-10T06:16:02.264Z,2.15
2018-12-10T06:17:02.348Z,2.13
2018-12-10T06:18:02.227Z,2.15
2018-12-10T06:19:02.210Z,2.22
2018-12-10T06:20:02.192Z,2.2
2018-12-10T06:21:02.174Z,2.15
2018-12-10T06:22:02.157Z,2.16
2018-12-10T06:23:02.138Z,2.11
2018-12-10T06:24:02.124Z,2.22
2018-12-10T06:25:02.104Z,2.12
2018-12-10T06:26:02.087Z,2.16
2018-12-10T06:27:02.069Z,2.16
2018-12-10T06:28:02.050Z,2.13
2018-12-10T06:29:02.032Z,2.11
2018-12-10T06:30:02.015Z,2.13
2018-12-10T06:31:01.999Z,2.13
2018-12-10T06:32:01.979Z,2.24
2018-12-10T06:33:02.028Z,2.22
2018-12-10T06:34:01.948Z,2.18
2018-12-10T06:35:01.929Z,2.23
2018-12-10T06:36:01.916Z,2.16
2018-12-10T06:37:01.890Z,2.22
2018-12-10T06:38:01.874Z,2.23
2018-12-10T06:39:01.358Z,2.18
2018-12-10T06:40:01.837Z,2.16
2018-12-10T06:41:01.327Z,2.18
2018-12-10T06:42:01.801Z,2.22
2018-12-10T06:43:01.783Z,2.18
2018-12-10T06:44:01.784Z,2.23
2018-12-10T06:45:01.758Z,2.15
2018-12-10T06:46:01.728Z,2.08
2018-12-10T06:47:01.717Z,2.16
2018-12-10T06:48:03.189Z,2.18
2018-12-10T06:49:01.681Z,2.2
2018-12-10T06:50:01.659Z,2.23
2018-12-10T06:51:01.642Z,2.16
2018-12-10T06:52:01.622Z,2.22
2018-12-10T06:53:01.611Z,2.11
2018-12-10T06:54:01.590Z,2.22
2018-12-10T06:55:01.599Z,2.18
2018-12-10T06:56:01.567Z,2.15
2018-12-10T06:57:01.290Z,2.23
2018-12-10T06:58:01.274Z,2.2
2018-12-10T06:59:01.256Z,2.23
2018-12-10T07:00:01.487Z,2.15
2018-12-10T07:01:02.490Z,2.24
2018-12-10T07:02:01.458Z,2.2
2018-12-10T07:03:01.531Z,2.22
2018-12-10T07:04:01.416Z,2.15
2018-12-10T07:05:01.404Z,2.13
2018-12-10T07:06:01.130Z,2.15
2018-12-10T07:07:01.366Z,2.2
2018-12-10T07:08:01.339Z,2.23
2018-12-10T07:09:01.324Z,2.11
2018-12-10T07:10:01.313Z,2.12
2018-12-10T07:11:01.289Z,2.13
2018-12-10T07:12:01.271Z,2.13
2018-12-10T07:13:01.254Z,2.15
2018-12-10T07:14:01.434Z,2.13
2018-12-10T07:15:01.218Z,2.16
2018-12-10T07:16:01.203Z,2.15
2018-12-10T07:17:01.187Z,2.13
2018-12-10T07:18:01.169Z,2.16
2018-12-10T07:19:01.150Z,2.11
2018-12-10T07:20:01.135Z,2.12
2018-12-10T07:21:01.115Z,2.15
2018-12-10T07:22:01.100Z,2.18
2018-12-10T07:23:00.835Z,2.09
2018-12-10T07:24:01.060Z,2.12
2018-12-10T07:25:01.045Z,2.18
2018-12-10T07:26:01.023Z,2.15
2018-12-10T07:27:01.004Z,2.13
2018-12-10T07:28:00.988Z,2.12
2018-12-10T07:29:00.730Z,2.2
2018-12-10T07:30:00.956Z,2.13
2018-12-10T07:31:00.935Z,2.13
2018-12-10T07:32:00.672Z,2.15
2018-12-10T07:33:00.903Z,2.16
2018-12-10T07:34:00.635Z,2.23
2018-12-10T07:35:00.864Z,2.16
2018-12-10T07:36:00.846Z,2.18
2018-12-10T07:37:00.834Z,2.24
2018-12-10T07:38:00.816Z,2.24
2018-12-10T07:39:00.793Z,2.22
2018-12-10T07:40:00.779Z,2.22
2018-12-10T07:41:00.760Z,2.23
2018-12-10T07:42:00.739Z,2.15
2018-12-10T07:43:00.478Z,2.13
2018-12-10T07:44:00.707Z,2.16
2018-12-10T07:45:00.689Z,2.18
2018-12-10T07:46:00.782Z,2.22
2018-12-10T07:47:00.653Z,2.22
2018-12-10T07:48:00.637Z,2.2
2018-12-10T07:49:00.616Z,2.26
2018-12-10T07:50:00.364Z,2.18
2018-12-10T07:51:00.586Z,2.2
2018-12-10T07:52:00.565Z,2.2
2018-12-10T07:53:00.586Z,2.29
2018-12-10T07:54:00.529Z,2.29
2018-12-10T07:55:00.511Z,2.18
2018-12-10T07:56:00.247Z,2.27
2018-12-10T07:57:00.477Z,2.16
2018-12-10T07:58:00.213Z,2.22
2018-12-10T07:59:00.440Z,2.18
2018-12-10T08:00:00.423Z,2.22
2018-12-10T08:01:00.403Z,2.2
2018-12-10T08:02:00.386Z,2.2
2018-12-10T08:03:00.489Z,2.2
2018-12-10T08:04:00.358Z,2.12
2018-12-10T08:05:00.341Z,2.11
2018-12-10T08:06:00.332Z,2.12
2018-12-10T08:07:00.299Z,1.98
2018-12-10T08:08:00.282Z,1.86
2018-12-10T08:09:00.264Z,1.92
2018-12-10T08:10:00.258Z,1.72
2018-12-10T08:11:00.230Z,1.76
2018-12-10T08:12:00.223Z,1.58
2018-12-10T08:13:00.193Z,1.57
2018-12-10T08:14:00.175Z,1.48
2018-12-10T08:15:00.162Z,1.5
2018-12-10T08:15:59.890Z,1.48
2018-12-10T08:16:59.873Z,1.51
2018-12-10T08:17:59.861Z,1.42
2018-12-10T08:19:00.082Z,1.36
2018-12-10T08:20:00.074Z,1.42
2018-12-10T08:21:06.916Z,1.35
2018-12-10T08:22:00.028Z,1.3
2018-12-10T08:22:59.763Z,1.32
2018-12-10T08:23:59.744Z,1.3
2018-12-10T08:24:59.978Z,1.2
2018-12-10T08:25:59.967Z,1.32
2018-12-10T08:26:59.939Z,1.24
2018-12-10T08:27:59.923Z,1.29
2018-12-10T08:29:11.821Z,1.24
2018-12-10T08:29:59.638Z,1.32
2018-12-10T08:30:59.623Z,1.26
2018-12-10T08:32:00.292Z,1.32
2018-12-10T08:32:59.829Z,1.29
2018-12-10T08:33:59.811Z,1.4
2018-12-10T08:34:59.547Z,1.28
2018-12-10T08:35:59.782Z,1.44
2018-12-10T08:37:00.269Z,1.39
2018-12-10T08:37:59.736Z,1.39
2018-12-10T08:38:59.722Z,1.42
2018-12-10T08:39:59.703Z,1.47
2018-12-10T08:40:59.445Z,1.53
2018-12-10T08:41:59.454Z,1.56
2018-12-10T08:42:59.645Z,1.42
2018-12-10T08:43:59.645Z,1.46
2018-12-10T08:44:59.610Z,1.47
2018-12-10T08:45:59.600Z,1.56
2018-12-10T08:46:59.573Z,1.6
2018-12-10T08:47:59.644Z,1.58
2018-12-10T08:48:59.537Z,1.53
2018-12-10T08:49:59.520Z,1.64
2018-12-10T08:50:59.268Z,1.6
2018-12-10T08:51:59.497Z,1.58
2018-12-10T08:52:59.465Z,1.61
2018-12-10T08:53:59.464Z,1.66
2018-12-10T08:54:59.181Z,1.69
2018-12-10T08:55:59.411Z,1.6
2018-12-10T08:56:59.157Z,1.74
2018-12-10T08:57:59.377Z,1.6
2018-12-10T08:58:59.354Z,1.72
2018-12-10T08:59:59.090Z,1.71
2018-12-10T09:00:59.076Z,1.65
2018-12-10T09:01:59.304Z,1.74
2018-12-10T09:02:59.285Z,1.69
2018-12-10T09:03:59.265Z,1.64
2018-12-10T09:04:59.353Z,1.68
2018-12-10T09:05:59.231Z,1.71
2018-12-10T09:06:59.215Z,1.68
2018-12-10T09:07:59.197Z,1.74
2018-12-10T09:08:59.177Z,1.72
2018-12-10T09:09:59.157Z,1.65
2018-12-10T09:10:59.139Z,1.74
2018-12-10T09:11:59.120Z,1.71
2018-12-10T09:12:59.110Z,1.72
2018-12-10T09:13:59.084Z,1.68
2018-12-10T09:14:59.065Z,1.74
2018-12-10T09:15:59.047Z,1.78
2018-12-10T09:16:59.033Z,1.76
2018-12-10T09:17:59.020Z,1.72
2018-12-10T09:18:58.849Z,1.71
2018-12-10T09:19:58.987Z,1.78
2018-12-10T09:20:58.710Z,1.69
2018-12-10T09:21:58.940Z,1.76
2018-12-10T09:22:58.934Z,1.83
2018-12-10T09:23:58.902Z,1.84
2018-12-10T09:24:58.891Z,1.86
2018-12-10T09:25:58.867Z,1.84
2018-12-10T09:26:58.853Z,1.83
2018-12-10T09:27:58.831Z,1.86
2018-12-10T09:28:58.817Z,1.94
2018-12-10T09:29:58.798Z,2.04
2018-12-10T09:30:58.776Z,1.89
2018-12-10T09:31:58.759Z,1.97
2018-12-10T09:32:58.742Z,2.01
2018-12-10T09:33:58.722Z,2.01
2018-12-10T09:34:58.714Z,2.06
2018-12-10T09:35:58.686Z,2.09
2018-12-10T09:36:58.673Z,2.06
2018-12-10T09:37:58.653Z,2.05
2018-12-10T09:38:58.637Z,2.06
2018-12-10T09:39:58.371Z,2.01
2018-12-10T09:40:58.351Z,2.06
2018-12-10T09:41:58.581Z,2.09
2018-12-10T09:42:58.316Z,2.12
2018-12-10T09:43:58.545Z,2.08
2018-12-10T09:44:59.806Z,2.05
2018-12-10T09:45:58.510Z,2.05
2018-12-10T09:47:03.813Z,2.05
2018-12-10T09:47:58.474Z,2.05
2018-12-10T09:48:58.207Z,2.01
2018-12-10T09:49:58.440Z,2.09
2018-12-10T09:50:58.421Z,2.08
2018-12-10T09:51:58.406Z,2.05
2018-12-10T09:52:58.385Z,2.06
2018-12-10T09:53:57.871Z,2.06
2018-12-10T09:54:58.348Z,2.09
2018-12-10T09:55:58.331Z,2.08
2018-12-10T09:56:58.064Z,2.05
2018-12-10T09:57:58.295Z,1.87
2018-12-10T09:58:58.286Z,1.87
2018-12-10T09:59:58.259Z,1.84
2018-12-10T10:00:58.240Z,1.71
2018-12-10T10:01:58.229Z,1.71
2018-12-10T10:02:58.297Z,1.75
2018-12-10T10:03:57.939Z,1.66
2018-12-10T10:04:58.170Z,1.72
2018-12-10T10:05:58.154Z,1.75
2018-12-10T10:06:58.135Z,1.75
2018-12-10T10:07:57.877Z,1.87
2018-12-10T10:08:58.108Z,1.84
2018-12-10T10:09:58.084Z,1.83
2018-12-10T10:10:58.061Z,1.86
2018-12-10T10:11:58.046Z,1.97
2018-12-10T10:12:58.036Z,1.94
2018-12-10T10:13:57.879Z,1.92
2018-12-10T10:14:58.396Z,2.04
2018-12-10T10:15:57.973Z,1.93
2018-12-10T10:16:57.965Z,1.97
2018-12-10T10:17:58.940Z,1.93
2018-12-10T10:18:57.919Z,2.01
2018-12-10T10:19:57.902Z,2.04
2018-12-10T10:20:57.884Z,2.08
2018-12-10T10:21:57.865Z,2.16
2018-12-10T10:22:57.846Z,2.12
2018-12-10T10:23:59.512Z,2.16
2018-12-10T10:24:57.564Z,2.33
2018-12-10T10:25:57.796Z,2.38
2018-12-10T10:26:57.841Z,2.3
2018-12-10T10:27:57.764Z,2.44
2018-12-10T10:28:57.741Z,2.41
2018-12-10T10:29:57.726Z,2.47
2018-12-10T10:30:57.460Z,2.47
2018-12-10T10:31:57.690Z,2.38
2018-12-10T10:32:57.669Z,2.51
2018-12-10T10:33:57.650Z,2.41
2018-12-10T10:34:57.638Z,2.41
2018-12-10T10:35:57.615Z,2.6
2018-12-10T10:36:57.606Z,2.58
2018-12-10T10:37:57.334Z,2.59
2018-12-10T10:38:57.564Z,2.58
2018-12-10T10:39:57.546Z,2.6
2018-12-10T10:40:57.537Z,2.52
2018-12-10T10:41:59.779Z,2.52
2018-12-10T10:42:57.497Z,2.48
2018-12-10T10:43:57.229Z,2.52
2018-12-10T10:44:57.461Z,2.54
2018-12-10T10:45:57.451Z,2.42
2018-12-10T10:46:57.458Z,2.45
2018-12-10T10:47:57.406Z,2.45
2018-12-10T10:48:57.390Z,2.45
2018-12-10T10:49:57.373Z,2.49
2018-12-10T10:50:57.352Z,2.33
2018-12-10T10:51:57.336Z,2.45
2018-12-10T10:52:57.070Z,2.4
2018-12-10T10:53:57.190Z,2.36
2018-12-10T10:54:57.284Z,2.36
2018-12-10T10:55:57.265Z,2.3
2018-12-10T10:56:57.247Z,2.4
2018-12-10T10:57:57.233Z,2.38
2018-12-10T10:58:57.212Z,2.34
2018-12-10T10:59:57.198Z,2.36
2018-12-10T11:00:56.939Z,2.34
2018-12-10T11:01:57.167Z,2.36
2018-12-10T11:02:57.152Z,2.31
2018-12-10T11:03:56.878Z,2.3
2018-12-10T11:04:57.105Z,2.33
2018-12-10T11:05:57.090Z,2.31
2018-12-10T11:06:57.075Z,2.3
2018-12-10T11:07:57.052Z,2.31
2018-12-10T11:08:57.036Z,2.34
2018-12-10T11:09:57.025Z,2.36
2018-12-10T11:10:57.004Z,2.4
2018-12-10T11:11:56.988Z,2.42
2018-12-10T11:12:56.968Z,2.31
2018-12-10T11:13:56.953Z,2.34
2018-12-10T11:14:56.932Z,2.38
2018-12-10T11:15:56.670Z,2.4
2018-12-10T11:16:56.895Z,2.31
2018-12-10T11:17:56.875Z,2.44
2018-12-10T11:18:56.859Z,2.4
2018-12-10T11:19:56.839Z,2.33
2018-12-10T11:20:56.823Z,2.33
2018-12-10T11:21:56.805Z,2.31
2018-12-10T11:22:56.796Z,2.36
2018-12-10T11:23:56.779Z,2.31
2018-12-10T11:24:56.756Z,2.38
2018-12-10T11:25:56.743Z,2.31
2018-12-10T11:26:56.727Z,2.31
2018-12-10T11:27:56.700Z,2.44
2018-12-10T11:28:56.689Z,2.4
2018-12-10T11:29:56.667Z,2.47
2018-12-10T11:30:56.647Z,2.42
2018-12-10T11:31:56.382Z,2.47
2018-12-10T11:32:56.650Z,2.48
2018-12-10T11:33:56.595Z,2.42
2018-12-10T11:34:56.576Z,2.31
2018-12-10T11:35:56.561Z,2.49
2018-12-10T11:36:56.543Z,2.54
2018-12-10T11:37:56.527Z,2.51
2018-12-10T11:39:00.492Z,2.58
2018-12-10T11:39:56.492Z,2.7
2018-12-10T11:40:56.472Z,2.77
2018-12-10T11:41:56.456Z,2.78
2018-12-10T11:42:56.439Z,2.81
2018-12-10T11:43:56.418Z,2.8
2018-12-10T11:44:56.411Z,2.7
2018-12-10T11:45:56.392Z,2.73
2018-12-10T11:46:56.366Z,2.83
2018-12-10T11:47:56.354Z,2.77
2018-12-10T11:48:56.340Z,2.85
2018-12-10T11:49:56.317Z,2.83
2018-12-10T11:50:56.302Z,2.88
2018-12-10T11:51:56.284Z,2.95
2018-12-10T11:52:56.270Z,2.85
2018-12-10T11:53:56.247Z,2.85
2018-12-10T11:54:56.229Z,2.8
2018-12-10T11:55:56.221Z,2.76
2018-12-10T11:56:56.203Z,2.76
2018-12-10T11:57:56.181Z,2.72
2018-12-10T11:58:56.162Z,2.77
2018-12-10T11:59:56.142Z,2.76
2018-12-10T12:00:56.127Z,2.76
2018-12-10T12:01:55.862Z,2.72
2018-12-10T12:02:56.103Z,2.87
2018-12-10T12:03:55.837Z,2.84
2018-12-10T12:04:55.807Z,2.8
2018-12-10T12:05:56.040Z,2.84
2018-12-10T12:06:56.022Z,2.77
2018-12-10T12:07:56.006Z,2.73
2018-12-10T12:08:55.994Z,2.76
2018-12-10T12:09:55.972Z,2.73
2018-12-10T12:10:55.961Z,2.7
2018-12-10T12:11:55.935Z,2.8
2018-12-10T12:12:55.673Z,2.77
2018-12-10T12:13:55.904Z,2.78
2018-12-10T12:14:55.895Z,2.77
2018-12-10T12:15:55.866Z,2.8
2018-12-10T12:16:55.852Z,2.73
2018-12-10T12:17:55.584Z,2.73
2018-12-10T12:18:57.630Z,2.76
2018-12-10T12:19:55.797Z,2.6
2018-12-10T12:20:55.284Z,2.58
2018-12-10T12:21:55.513Z,2.59
2018-12-10T12:22:55.744Z,2.59
2018-12-10T12:23:55.730Z,2.54
2018-12-10T12:24:55.711Z,2.58
2018-12-10T12:25:55.445Z,2.58
2018-12-10T12:26:55.674Z,2.54
2018-12-10T12:27:55.658Z,2.58
2018-12-10T12:28:55.641Z,2.59
2018-12-10T12:29:55.623Z,2.6
2018-12-10T12:30:55.615Z,2.58
2018-12-10T12:31:55.590Z,2.54
2018-12-10T12:32:55.571Z,2.6
2018-12-10T12:33:55.307Z,2.58
2018-12-10T12:34:55.536Z,2.52
2018-12-10T12:35:55.519Z,2.54
2018-12-10T12:36:55.508Z,2.67
2018-12-10T12:37:55.487Z,2.76
2018-12-10T12:38:55.470Z,2.8
2018-12-10T12:39:55.448Z,2.85
2018-12-10T12:40:55.434Z,2.85
2018-12-10T12:41:55.414Z,2.91
2018-12-10T12:42:55.399Z,2.8
2018-12-10T12:43:55.381Z,2.77
2018-12-10T12:44:55.365Z,2.78
2018-12-10T12:45:55.417Z,2.8
2018-12-10T12:46:55.080Z,2.81
2018-12-10T12:47:55.312Z,2.81
2018-12-10T12:48:55.295Z,2.78
2018-12-10T12:49:55.076Z,2.73
2018-12-10T12:50:55.267Z,2.77
2018-12-10T12:51:55.248Z,2.73
2018-12-10T12:52:55.229Z,2.7
2018-12-10T12:53:54.716Z,2.65
2018-12-10T12:54:55.189Z,2.67
2018-12-10T12:55:54.925Z,2.72
2018-12-10T12:56:55.157Z,2.7
2018-12-10T12:57:54.895Z,2.7
2018-12-10T12:58:54.875Z,2.63
2018-12-10T12:59:55.107Z,2.63
2018-12-10T13:00:59.672Z,2.69
2018-12-10T13:01:55.072Z,2.59
2018-12-10T13:02:55.054Z,2.66
2018-12-10T13:03:54.794Z,2.59
2018-12-10T13:04:55.017Z,2.63
2018-12-10T13:05:55.003Z,2.67
2018-12-10T13:06:54.991Z,2.66
2018-12-10T13:07:54.975Z,2.66
2018-12-10T13:08:54.958Z,2.73
2018-12-10T13:09:54.936Z,2.67
2018-12-10T13:10:54.917Z,2.67
2018-12-10T13:11:54.898Z,2.7
2018-12-10T13:12:54.881Z,2.63
2018-12-10T13:13:54.956Z,2.66
2018-12-10T13:14:54.845Z,2.59
2018-12-10T13:15:54.830Z,2.62
2018-12-10T13:16:54.808Z,2.66
2018-12-10T13:17:54.797Z,2.63
2018-12-10T13:18:54.775Z,2.6
2018-12-10T13:19:54.516Z,2.6
2018-12-10T13:20:54.741Z,2.63